sensor_id;sensor_type;location;lat;lon;timestamp;P1;durP1;ratioP1;P2;durP2;ratioP2
21663;SDS011;10993;52.510;13.456;2022-08-19T00:00:10;12.05;;;10.10;;
21663;SDS011;10993;52.510;13.456;2022-08-19T00:05:15;11.18;;;9.63;;
21663;SDS011;10993;52.510;13.456;2022-08-19T00:10:16;12.15;;;10.07;;
21663;SDS011;10993;52.510;13.456;2022-08-19T00:15:19;11.68;;;9.80;;
21663;SDS011;10993;52.510;13.456;2022-08-19T00:20:22;10.93;;;9.52;;
21663;SDS011;10993;52.510;13.456;2022-08-19T00:25:22;13.18;;;10.35;;
21663;SDS011;10993;52.510;13.456;2022-08-19T00:30:23;12.73;;;10.30;;
21663;SDS011;10993;52.510;13.456;2022-08-19T00:35:24;15.05;;;11.25;;
21663;SDS011;10993;52.510;13.456;2022-08-19T00:40:27;14.13;;;10.80;;
21663;SDS011;10993;52.510;13.456;2022-08-19T00:45:27;16.23;;;12.07;;
21663;SDS011;10993;52.510;13.456;2022-08-19T00:50:32;28.00;;;12.70;;
21663;SDS011;10993;52.510;13.456;2022-08-19T00:55:33;24.27;;;14.90;;
21663;SDS011;10993;52.510;13.456;2022-08-19T01:00:34;20.83;;;15.07;;
21663;SDS011;10993;52.510;13.456;2022-08-19T01:05:38;19.80;;;15.30;;
21663;SDS011;10993;52.510;13.456;2022-08-19T01:10:41;19.25;;;14.50;;
21663;SDS011;10993;52.510;13.456;2022-08-19T01:15:46;16.67;;;14.32;;
21663;SDS011;10993;52.510;13.456;2022-08-19T01:20:51;18.95;;;15.30;;
21663;SDS011;10993;52.510;13.456;2022-08-19T01:25:55;20.17;;;14.77;;
21663;SDS011;10993;52.510;13.456;2022-08-19T01:30:55;18.92;;;14.77;;
21663;SDS011;10993;52.510;13.456;2022-08-19T01:36:02;22.47;;;15.17;;
21663;SDS011;10993;52.510;13.456;2022-08-19T01:41:06;18.40;;;15.32;;
21663;SDS011;10993;52.510;13.456;2022-08-19T01:46:06;21.48;;;16.17;;
21663;SDS011;10993;52.510;13.456;2022-08-19T01:51:07;22.85;;;16.20;;
21663;SDS011;10993;52.510;13.456;2022-08-19T01:56:10;25.20;;;16.63;;
21663;SDS011;10993;52.510;13.456;2022-08-19T02:01:10;22.58;;;16.52;;
21663;SDS011;10993;52.510;13.456;2022-08-19T02:06:11;21.98;;;15.63;;
21663;SDS011;10993;52.510;13.456;2022-08-19T02:11:18;20.77;;;15.27;;
21663;SDS011;10993;52.510;13.456;2022-08-19T02:16:20;23.48;;;16.17;;
21663;SDS011;10993;52.510;13.456;2022-08-19T02:21:22;17.60;;;14.25;;
21663;SDS011;10993;52.510;13.456;2022-08-19T02:26:25;19.67;;;14.35;;
21663;SDS011;10993;52.510;13.456;2022-08-19T02:31:28;16.48;;;13.45;;
21663;SDS011;10993;52.510;13.456;2022-08-19T02:36:30;19.80;;;14.30;;
21663;SDS011;10993;52.510;13.456;2022-08-19T02:41:32;19.33;;;15.75;;
21663;SDS011;10993;52.510;13.456;2022-08-19T02:46:33;16.35;;;14.50;;
21663;SDS011;10993;52.510;13.456;2022-08-19T02:51:35;18.17;;;14.32;;
21663;SDS011;10993;52.510;13.456;2022-08-19T02:56:40;19.08;;;14.48;;
21663;SDS011;10993;52.510;13.456;2022-08-19T03:01:42;17.60;;;14.65;;
21663;SDS011;10993;52.510;13.456;2022-08-19T03:06:44;17.73;;;14.32;;
21663;SDS011;10993;52.510;13.456;2022-08-19T03:11:47;18.95;;;14.10;;
21663;SDS011;10993;52.510;13.456;2022-08-19T03:16:49;19.13;;;13.77;;
21663;SDS011;10993;52.510;13.456;2022-08-19T03:21:51;19.10;;;14.60;;
21663;SDS011;10993;52.510;13.456;2022-08-19T03:26:53;16.80;;;14.13;;
21663;SDS011;10993;52.510;13.456;2022-08-19T03:31:57;17.75;;;14.18;;
21663;SDS011;10993;52.510;13.456;2022-08-19T03:37:03;15.52;;;13.65;;
21663;SDS011;10993;52.510;13.456;2022-08-19T03:42:06;20.05;;;15.30;;
21663;SDS011;10993;52.510;13.456;2022-08-19T03:47:06;17.63;;;14.98;;
21663;SDS011;10993;52.510;13.456;2022-08-19T03:52:07;17.48;;;14.05;;
21663;SDS011;10993;52.510;13.456;2022-08-19T03:57:09;16.70;;;14.82;;
21663;SDS011;10993;52.510;13.456;2022-08-19T04:02:10;20.00;;;15.13;;
21663;SDS011;10993;52.510;13.456;2022-08-19T04:07:13;18.73;;;15.02;;
21663;SDS011;10993;52.510;13.456;2022-08-19T04:12:22;17.35;;;15.00;;
21663;SDS011;10993;52.510;13.456;2022-08-19T04:17:22;17.55;;;14.95;;
21663;SDS011;10993;52.510;13.456;2022-08-19T04:22:23;18.13;;;15.23;;
21663;SDS011;10993;52.510;13.456;2022-08-19T04:27:24;20.37;;;15.00;;
21663;SDS011;10993;52.510;13.456;2022-08-19T04:32:25;18.70;;;15.55;;
21663;SDS011;10993;52.510;13.456;2022-08-19T04:37:25;19.90;;;16.65;;
21663;SDS011;10993;52.510;13.456;2022-08-19T04:42:28;18.92;;;16.10;;
21663;SDS011;10993;52.510;13.456;2022-08-19T04:47:41;21.17;;;16.17;;
21663;SDS011;10993;52.510;13.456;2022-08-19T04:52:44;19.02;;;15.23;;
21663;SDS011;10993;52.510;13.456;2022-08-19T04:57:46;16.52;;;14.13;;
21663;SDS011;10993;52.510;13.456;2022-08-19T05:02:46;17.85;;;14.30;;
21663;SDS011;10993;52.510;13.456;2022-08-19T05:07:46;14.82;;;13.23;;
21663;SDS011;10993;52.510;13.456;2022-08-19T05:12:48;11.88;;;10.57;;
21663;SDS011;10993;52.510;13.456;2022-08-19T05:17:48;11.27;;;9.18;;
21663;SDS011;10993;52.510;13.456;2022-08-19T05:23:09;9.07;;;7.72;;
21663;SDS011;10993;52.510;13.456;2022-08-19T05:28:11;12.30;;;7.90;;
21663;SDS011;10993;52.510;13.456;2022-08-19T05:33:12;10.32;;;7.50;;
21663;SDS011;10993;52.510;13.456;2022-08-19T05:38:12;7.65;;;6.65;;
21663;SDS011;10993;52.510;13.456;2022-08-19T05:43:14;8.60;;;6.90;;
21663;SDS011;10993;52.510;13.456;2022-08-19T05:48:15;8.10;;;6.80;;
21663;SDS011;10993;52.510;13.456;2022-08-19T05:53:17;8.38;;;7.20;;
21663;SDS011;10993;52.510;13.456;2022-08-19T05:58:19;9.20;;;7.78;;
21663;SDS011;10993;52.510;13.456;2022-08-19T06:03:20;9.50;;;8.10;;
21663;SDS011;10993;52.510;13.456;2022-08-19T06:08:20;10.93;;;8.63;;
21663;SDS011;10993;52.510;13.456;2022-08-19T06:13:22;12.90;;;9.27;;
21663;SDS011;10993;52.510;13.456;2022-08-19T06:18:22;10.52;;;8.90;;
21663;SDS011;10993;52.510;13.456;2022-08-19T06:23:23;11.15;;;9.45;;
21663;SDS011;10993;52.510;13.456;2022-08-19T06:28:27;11.85;;;9.50;;
21663;SDS011;10993;52.510;13.456;2022-08-19T06:33:27;13.02;;;9.70;;
21663;SDS011;10993;52.510;13.456;2022-08-19T06:38:28;13.73;;;10.77;;
21663;SDS011;10993;52.510;13.456;2022-08-19T06:43:29;12.43;;;9.80;;
21663;SDS011;10993;52.510;13.456;2022-08-19T06:48:30;11.82;;;9.82;;
21663;SDS011;10993;52.510;13.456;2022-08-19T06:53:31;15.73;;;11.02;;
21663;SDS011;10993;52.510;13.456;2022-08-19T06:58:33;12.38;;;10.60;;
21663;SDS011;10993;52.510;13.456;2022-08-19T07:03:34;11.63;;;10.15;;
21663;SDS011;10993;52.510;13.456;2022-08-19T07:08:37;15.27;;;11.18;;
21663;SDS011;10993;52.510;13.456;2022-08-19T07:13:44;11.55;;;9.55;;
21663;SDS011;10993;52.510;13.456;2022-08-19T07:18:45;16.95;;;10.50;;
21663;SDS011;10993;52.510;13.456;2022-08-19T07:23:47;13.15;;;11.73;;
21663;SDS011;10993;52.510;13.456;2022-08-19T07:28:50;16.25;;;11.15;;
21663;SDS011;10993;52.510;13.456;2022-08-19T07:33:51;14.15;;;11.20;;
21663;SDS011;10993;52.510;13.456;2022-08-19T07:38:55;17.90;;;13.07;;
21663;SDS011;10993;52.510;13.456;2022-08-19T07:43:57;13.82;;;11.25;;
21663;SDS011;10993;52.510;13.456;2022-08-19T07:48:58;15.02;;;12.43;;
21663;SDS011;10993;52.510;13.456;2022-08-19T07:53:58;14.98;;;12.00;;
21663;SDS011;10993;52.510;13.456;2022-08-19T07:59:01;14.43;;;11.95;;
21663;SDS011;10993;52.510;13.456;2022-08-19T08:04:01;17.73;;;13.30;;
21663;SDS011;10993;52.510;13.456;2022-08-19T08:09:22;16.63;;;12.60;;
21663;SDS011;10993;52.510;13.456;2022-08-19T08:14:28;16.30;;;11.75;;
21663;SDS011;10993;52.510;13.456;2022-08-19T08:19:29;16.80;;;12.32;;
21663;SDS011;10993;52.510;13.456;2022-08-19T08:24:30;12.82;;;11.32;;
21663;SDS011;10993;52.510;13.456;2022-08-19T08:29:32;14.63;;;11.43;;
21663;SDS011;10993;52.510;13.456;2022-08-19T08:34:33;12.48;;;10.48;;
21663;SDS011;10993;52.510;13.456;2022-08-19T08:39:33;12.30;;;10.88;;
21663;SDS011;10993;52.510;13.456;2022-08-19T08:44:39;13.50;;;9.75;;
21663;SDS011;10993;52.510;13.456;2022-08-19T08:49:50;11.07;;;9.98;;
21663;SDS011;10993;52.510;13.456;2022-08-19T08:54:54;15.35;;;10.02;;
21663;SDS011;10993;52.510;13.456;2022-08-19T08:59:58;12.45;;;10.25;;
21663;SDS011;10993;52.510;13.456;2022-08-19T09:05:02;12.65;;;10.50;;
21663;SDS011;10993;52.510;13.456;2022-08-19T09:10:04;14.95;;;10.52;;
21663;SDS011;10993;52.510;13.456;2022-08-19T09:15:12;12.38;;;11.05;;
21663;SDS011;10993;52.510;13.456;2022-08-19T09:20:14;13.82;;;10.82;;
21663;SDS011;10993;52.510;13.456;2022-08-19T09:25:19;15.65;;;11.18;;
21663;SDS011;10993;52.510;13.456;2022-08-19T09:30:24;12.60;;;10.27;;
21663;SDS011;10993;52.510;13.456;2022-08-19T09:35:27;13.85;;;10.80;;
21663;SDS011;10993;52.510;13.456;2022-08-19T09:40:30;13.50;;;10.85;;
21663;SDS011;10993;52.510;13.456;2022-08-19T09:45:32;11.65;;;9.93;;
21663;SDS011;10993;52.510;13.456;2022-08-19T09:50:32;12.32;;;9.73;;
21663;SDS011;10993;52.510;13.456;2022-08-19T09:55:34;13.55;;;9.65;;
21663;SDS011;10993;52.510;13.456;2022-08-19T10:00:35;12.17;;;9.60;;
21663;SDS011;10993;52.510;13.456;2022-08-19T10:05:37;11.73;;;9.75;;
21663;SDS011;10993;52.510;13.456;2022-08-19T10:10:49;11.40;;;10.23;;
21663;SDS011;10993;52.510;13.456;2022-08-19T10:15:52;13.23;;;10.27;;
21663;SDS011;10993;52.510;13.456;2022-08-19T10:21:01;14.20;;;10.95;;
21663;SDS011;10993;52.510;13.456;2022-08-19T10:26:07;16.35;;;11.60;;
21663;SDS011;10993;52.510;13.456;2022-08-19T10:31:11;14.68;;;10.88;;
21663;SDS011;10993;52.510;13.456;2022-08-19T10:36:13;11.95;;;9.55;;
21663;SDS011;10993;52.510;13.456;2022-08-19T10:41:17;13.48;;;9.80;;
21663;SDS011;10993;52.510;13.456;2022-08-19T10:46:20;12.25;;;9.40;;
21663;SDS011;10993;52.510;13.456;2022-08-19T10:51:22;11.68;;;9.07;;
21663;SDS011;10993;52.510;13.456;2022-08-19T10:56:40;12.82;;;9.52;;
21663;SDS011;10993;52.510;13.456;2022-08-19T11:01:58;13.68;;;9.23;;
21663;SDS011;10993;52.510;13.456;2022-08-19T11:06:59;19.25;;;13.68;;
21663;SDS011;10993;52.510;13.456;2022-08-19T11:11:59;12.98;;;9.43;;
21663;SDS011;10993;52.510;13.456;2022-08-19T11:17:02;11.95;;;10.35;;
21663;SDS011;10993;52.510;13.456;2022-08-19T11:22:04;13.10;;;11.45;;
21663;SDS011;10993;52.510;13.456;2022-08-19T11:27:09;12.75;;;10.30;;
21663;SDS011;10993;52.510;13.456;2022-08-19T11:32:11;14.27;;;9.88;;
21663;SDS011;10993;52.510;13.456;2022-08-19T11:37:12;11.77;;;9.93;;
21663;SDS011;10993;52.510;13.456;2022-08-19T11:42:13;13.00;;;9.65;;
21663;SDS011;10993;52.510;13.456;2022-08-19T11:47:33;10.98;;;8.80;;
21663;SDS011;10993;52.510;13.456;2022-08-19T11:52:33;10.93;;;8.70;;
21663;SDS011;10993;52.510;13.456;2022-08-19T11:57:34;9.23;;;8.15;;
21663;SDS011;10993;52.510;13.456;2022-08-19T12:02:35;10.80;;;7.97;;
21663;SDS011;10993;52.510;13.456;2022-08-19T12:07:36;10.05;;;7.65;;
21663;SDS011;10993;52.510;13.456;2022-08-19T12:12:37;7.80;;;6.97;;
21663;SDS011;10993;52.510;13.456;2022-08-19T12:17:43;10.57;;;7.63;;
21663;SDS011;10993;52.510;13.456;2022-08-19T12:22:44;8.52;;;7.50;;
21663;SDS011;10993;52.510;13.456;2022-08-19T12:27:44;12.73;;;7.43;;
21663;SDS011;10993;52.510;13.456;2022-08-19T12:32:46;11.13;;;7.47;;
21663;SDS011;10993;52.510;13.456;2022-08-19T12:37:46;9.85;;;7.20;;
21663;SDS011;10993;52.510;13.456;2022-08-19T12:42:48;10.77;;;7.47;;
21663;SDS011;10993;52.510;13.456;2022-08-19T12:47:52;7.95;;;6.35;;
21663;SDS011;10993;52.510;13.456;2022-08-19T12:52:52;7.97;;;6.65;;
21663;SDS011;10993;52.510;13.456;2022-08-19T12:57:53;8.90;;;6.23;;
21663;SDS011;10993;52.510;13.456;2022-08-19T13:02:55;10.20;;;6.65;;
21663;SDS011;10993;52.510;13.456;2022-08-19T13:07:56;8.90;;;6.35;;
21663;SDS011;10993;52.510;13.456;2022-08-19T13:12:59;8.30;;;6.00;;
21663;SDS011;10993;52.510;13.456;2022-08-19T13:18:01;8.93;;;6.32;;
21663;SDS011;10993;52.510;13.456;2022-08-19T13:23:01;8.32;;;6.85;;
21663;SDS011;10993;52.510;13.456;2022-08-19T13:28:02;8.38;;;7.25;;
21663;SDS011;10993;52.510;13.456;2022-08-19T13:33:04;14.10;;;7.82;;
21663;SDS011;10993;52.510;13.456;2022-08-19T13:38:11;10.00;;;7.93;;
21663;SDS011;10993;52.510;13.456;2022-08-19T13:43:13;9.57;;;7.50;;
21663;SDS011;10993;52.510;13.456;2022-08-19T13:48:15;11.63;;;8.40;;
21663;SDS011;10993;52.510;13.456;2022-08-19T13:53:16;12.27;;;8.07;;
21663;SDS011;10993;52.510;13.456;2022-08-19T13:58:17;8.43;;;7.50;;
21663;SDS011;10993;52.510;13.456;2022-08-19T14:03:19;8.38;;;7.53;;
21663;SDS011;10993;52.510;13.456;2022-08-19T14:08:19;10.25;;;7.70;;
21663;SDS011;10993;52.510;13.456;2022-08-19T14:13:21;9.30;;;7.40;;
21663;SDS011;10993;52.510;13.456;2022-08-19T14:18:24;8.75;;;7.63;;
21663;SDS011;10993;52.510;13.456;2022-08-19T14:23:25;10.80;;;7.95;;
21663;SDS011;10993;52.510;13.456;2022-08-19T14:28:25;13.07;;;8.38;;
21663;SDS011;10993;52.510;13.456;2022-08-19T14:33:27;10.77;;;8.53;;
21663;SDS011;10993;52.510;13.456;2022-08-19T14:38:27;10.77;;;8.35;;
21663;SDS011;10993;52.510;13.456;2022-08-19T14:43:31;8.52;;;7.35;;
21663;SDS011;10993;52.510;13.456;2022-08-19T14:48:32;9.80;;;8.23;;
21663;SDS011;10993;52.510;13.456;2022-08-19T14:53:33;10.82;;;7.45;;
21663;SDS011;10993;52.510;13.456;2022-08-19T14:58:33;9.35;;;7.05;;
21663;SDS011;10993;52.510;13.456;2022-08-19T15:03:35;8.70;;;7.40;;
21663;SDS011;10993;52.510;13.456;2022-08-19T15:08:36;10.75;;;7.85;;
21663;SDS011;10993;52.510;13.456;2022-08-19T15:13:39;10.80;;;8.15;;
21663;SDS011;10993;52.510;13.456;2022-08-19T15:18:40;10.23;;;7.80;;
21663;SDS011;10993;52.510;13.456;2022-08-19T15:23:44;11.55;;;7.93;;
21663;SDS011;10993;52.510;13.456;2022-08-19T15:28:45;9.32;;;7.22;;
21663;SDS011;10993;52.510;13.456;2022-08-19T15:33:47;9.07;;;6.70;;
21663;SDS011;10993;52.510;13.456;2022-08-19T15:38:48;10.30;;;8.38;;
21663;SDS011;10993;52.510;13.456;2022-08-19T15:43:52;9.43;;;7.65;;
21663;SDS011;10993;52.510;13.456;2022-08-19T15:48:55;10.10;;;7.43;;
21663;SDS011;10993;52.510;13.456;2022-08-19T15:53:56;10.82;;;8.50;;
21663;SDS011;10993;52.510;13.456;2022-08-19T15:58:57;10.48;;;7.47;;
21663;SDS011;10993;52.510;13.456;2022-08-19T16:04:18;8.00;;;7.07;;
21663;SDS011;10993;52.510;13.456;2022-08-19T16:09:37;11.50;;;7.57;;
21663;SDS011;10993;52.510;13.456;2022-08-19T16:14:37;10.03;;;7.63;;
21663;SDS011;10993;52.510;13.456;2022-08-19T16:19:42;12.27;;;7.57;;
21663;SDS011;10993;52.510;13.456;2022-08-19T16:24:42;12.52;;;7.50;;
21663;SDS011;10993;52.510;13.456;2022-08-19T16:29:43;9.55;;;7.53;;
21663;SDS011;10993;52.510;13.456;2022-08-19T16:34:45;9.73;;;7.97;;
21663;SDS011;10993;52.510;13.456;2022-08-19T16:39:46;9.98;;;8.07;;
21663;SDS011;10993;52.510;13.456;2022-08-19T16:44:46;8.80;;;7.72;;
21663;SDS011;10993;52.510;13.456;2022-08-19T16:49:48;10.67;;;7.80;;
21663;SDS011;10993;52.510;13.456;2022-08-19T16:54:48;12.93;;;8.35;;
21663;SDS011;10993;52.510;13.456;2022-08-19T16:59:48;11.03;;;8.07;;
21663;SDS011;10993;52.510;13.456;2022-08-19T17:04:52;9.70;;;8.20;;
21663;SDS011;10993;52.510;13.456;2022-08-19T17:09:52;9.57;;;8.57;;
21663;SDS011;10993;52.510;13.456;2022-08-19T17:14:53;12.27;;;8.55;;
21663;SDS011;10993;52.510;13.456;2022-08-19T17:19:56;13.23;;;8.52;;
21663;SDS011;10993;52.510;13.456;2022-08-19T17:24:57;9.68;;;8.60;;
21663;SDS011;10993;52.510;13.456;2022-08-19T17:29:58;12.10;;;8.77;;
21663;SDS011;10993;52.510;13.456;2022-08-19T17:35:02;12.35;;;8.52;;
21663;SDS011;10993;52.510;13.456;2022-08-19T17:40:04;10.90;;;8.57;;
21663;SDS011;10993;52.510;13.456;2022-08-19T17:45:07;11.57;;;9.05;;
21663;SDS011;10993;52.510;13.456;2022-08-19T17:50:11;11.40;;;8.73;;
21663;SDS011;10993;52.510;13.456;2022-08-19T17:55:14;10.40;;;8.10;;
21663;SDS011;10993;52.510;13.456;2022-08-19T18:00:15;9.48;;;7.93;;
21663;SDS011;10993;52.510;13.456;2022-08-19T18:05:18;8.35;;;7.22;;
21663;SDS011;10993;52.510;13.456;2022-08-19T18:10:20;10.23;;;7.53;;
21663;SDS011;10993;52.510;13.456;2022-08-19T18:15:22;8.85;;;6.78;;
21663;SDS011;10993;52.510;13.456;2022-08-19T18:20:26;8.00;;;6.53;;
21663;SDS011;10993;52.510;13.456;2022-08-19T18:25:26;9.82;;;7.28;;
21663;SDS011;10993;52.510;13.456;2022-08-19T18:30:28;8.68;;;6.32;;
21663;SDS011;10993;52.510;13.456;2022-08-19T18:35:34;9.25;;;7.13;;
21663;SDS011;10993;52.510;13.456;2022-08-19T18:40:37;11.23;;;6.70;;
21663;SDS011;10993;52.510;13.456;2022-08-19T18:45:56;8.60;;;6.80;;
21663;SDS011;10993;52.510;13.456;2022-08-19T18:51:16;8.73;;;6.40;;
21663;SDS011;10993;52.510;13.456;2022-08-19T18:56:18;7.65;;;6.40;;
21663;SDS011;10993;52.510;13.456;2022-08-19T19:01:20;8.77;;;6.70;;
21663;SDS011;10993;52.510;13.456;2022-08-19T19:06:24;9.63;;;7.13;;
21663;SDS011;10993;52.510;13.456;2022-08-19T19:11:29;9.65;;;7.57;;
21663;SDS011;10993;52.510;13.456;2022-08-19T19:16:33;8.18;;;6.68;;
21663;SDS011;10993;52.510;13.456;2022-08-19T19:21:35;9.13;;;7.30;;
21663;SDS011;10993;52.510;13.456;2022-08-19T19:26:35;19.92;;;15.35;;
21663;SDS011;10993;52.510;13.456;2022-08-19T19:31:36;9.63;;;7.95;;
21663;SDS011;10993;52.510;13.456;2022-08-19T19:36:38;9.13;;;7.30;;
21663;SDS011;10993;52.510;13.456;2022-08-19T19:41:38;10.98;;;7.72;;
21663;SDS011;10993;52.510;13.456;2022-08-19T19:46:40;10.35;;;7.13;;
21663;SDS011;10993;52.510;13.456;2022-08-19T19:51:45;10.25;;;7.85;;
21663;SDS011;10993;52.510;13.456;2022-08-19T19:56:45;10.07;;;7.85;;
21663;SDS011;10993;52.510;13.456;2022-08-19T20:01:49;10.55;;;8.60;;
21663;SDS011;10993;52.510;13.456;2022-08-19T20:06:51;11.55;;;9.10;;
21663;SDS011;10993;52.510;13.456;2022-08-19T20:11:52;12.02;;;8.63;;
21663;SDS011;10993;52.510;13.456;2022-08-19T20:16:54;12.20;;;8.80;;
21663;SDS011;10993;52.510;13.456;2022-08-19T20:21:56;10.27;;;8.93;;
21663;SDS011;10993;52.510;13.456;2022-08-19T20:26:57;12.18;;;9.45;;
21663;SDS011;10993;52.510;13.456;2022-08-19T20:31:58;12.68;;;10.32;;
21663;SDS011;10993;52.510;13.456;2022-08-19T20:36:59;15.00;;;9.30;;
21663;SDS011;10993;52.510;13.456;2022-08-19T20:42:00;12.40;;;10.05;;
21663;SDS011;10993;52.510;13.456;2022-08-19T20:47:00;12.10;;;9.88;;
21663;SDS011;10993;52.510;13.456;2022-08-19T20:52:03;11.57;;;9.40;;
21663;SDS011;10993;52.510;13.456;2022-08-19T20:57:04;11.85;;;9.32;;
21663;SDS011;10993;52.510;13.456;2022-08-19T21:02:04;14.45;;;9.98;;
21663;SDS011;10993;52.510;13.456;2022-08-19T21:07:06;13.77;;;10.00;;
21663;SDS011;10993;52.510;13.456;2022-08-19T21:12:09;14.77;;;10.15;;
21663;SDS011;10993;52.510;13.456;2022-08-19T21:17:11;12.63;;;10.18;;
21663;SDS011;10993;52.510;13.456;2022-08-19T21:22:13;11.77;;;9.18;;
21663;SDS011;10993;52.510;13.456;2022-08-19T21:27:13;9.57;;;7.93;;
21663;SDS011;10993;52.510;13.456;2022-08-19T21:32:14;9.52;;;8.07;;
21663;SDS011;10993;52.510;13.456;2022-08-19T21:37:15;8.57;;;7.10;;
21663;SDS011;10993;52.510;13.456;2022-08-19T21:42:16;10.98;;;8.35;;
21663;SDS011;10993;52.510;13.456;2022-08-19T21:47:16;12.00;;;8.35;;
21663;SDS011;10993;52.510;13.456;2022-08-19T21:52:21;9.43;;;7.93;;
21663;SDS011;10993;52.510;13.456;2022-08-19T21:57:22;10.40;;;8.20;;
21663;SDS011;10993;52.510;13.456;2022-08-19T22:02:23;9.43;;;7.57;;
21663;SDS011;10993;52.510;13.456;2022-08-19T22:07:25;11.48;;;8.55;;
21663;SDS011;10993;52.510;13.456;2022-08-19T22:12:27;9.32;;;8.15;;
21663;SDS011;10993;52.510;13.456;2022-08-19T22:17:29;11.27;;;8.98;;
21663;SDS011;10993;52.510;13.456;2022-08-19T22:22:33;11.70;;;10.00;;
21663;SDS011;10993;52.510;13.456;2022-08-19T22:27:34;11.95;;;10.02;;
21663;SDS011;10993;52.510;13.456;2022-08-19T22:32:35;13.73;;;11.45;;
21663;SDS011;10993;52.510;13.456;2022-08-19T22:37:37;15.52;;;10.60;;
21663;SDS011;10993;52.510;13.456;2022-08-19T22:42:40;14.55;;;10.98;;
21663;SDS011;10993;52.510;13.456;2022-08-19T22:47:41;15.77;;;12.80;;
21663;SDS011;10993;52.510;13.456;2022-08-19T22:52:43;19.35;;;13.65;;
21663;SDS011;10993;52.510;13.456;2022-08-19T22:57:43;19.30;;;14.55;;
21663;SDS011;10993;52.510;13.456;2022-08-19T23:02:44;19.52;;;14.70;;
21663;SDS011;10993;52.510;13.456;2022-08-19T23:07:46;31.65;;;25.63;;
21663;SDS011;10993;52.510;13.456;2022-08-19T23:12:47;18.15;;;14.20;;
21663;SDS011;10993;52.510;13.456;2022-08-19T23:17:48;18.27;;;14.35;;
21663;SDS011;10993;52.510;13.456;2022-08-19T23:22:50;18.83;;;14.50;;
21663;SDS011;10993;52.510;13.456;2022-08-19T23:27:51;21.52;;;16.88;;
21663;SDS011;10993;52.510;13.456;2022-08-19T23:33:13;20.58;;;16.40;;
21663;SDS011;10993;52.510;13.456;2022-08-19T23:38:16;22.45;;;17.10;;
21663;SDS011;10993;52.510;13.456;2022-08-19T23:43:18;20.77;;;16.83;;
21663;SDS011;10993;52.510;13.456;2022-08-19T23:48:18;21.85;;;15.63;;
21663;SDS011;10993;52.510;13.456;2022-08-19T23:53:20;21.30;;;15.07;;
21663;SDS011;10993;52.510;13.456;2022-08-19T23:58:21;18.63;;;15.20;;
